createdAt,value
2019-03-24T00:00:58.407Z,21.40
2019-03-24T00:03:30.018Z,19.70
2019-03-24T00:06:01.627Z,23.40
2019-03-24T00:08:33.315Z,25.23
2019-03-24T00:11:04.937Z,26.63
2019-03-24T00:13:36.745Z,27.93
2019-03-24T00:16:08.472Z,23.23
2019-03-24T00:18:40.511Z,27.33
2019-03-24T00:21:12.107Z,23.23
2019-03-24T00:23:43.756Z,23.90
2019-03-24T00:26:15.477Z,22.23
2019-03-24T00:28:47.079Z,37.57
2019-03-24T00:31:18.765Z,25.60
2019-03-24T00:33:50.395Z,26.33
2019-03-24T00:36:22.137Z,24.70
2019-03-24T00:38:53.770Z,26.50
2019-03-24T00:41:25.457Z,23.00
2019-03-24T00:43:57.041Z,19.90
2019-03-24T00:46:28.767Z,20.07
2019-03-24T00:49:00.427Z,24.63
2019-03-24T00:51:32.119Z,24.97
2019-03-24T00:54:03.707Z,20.40
2019-03-24T00:56:35.580Z,27.13
2019-03-24T00:59:07.219Z,20.90
2019-03-24T01:01:38.803Z,21.97
2019-03-24T01:04:10.466Z,24.30
2019-03-24T01:06:42.489Z,22.43
2019-03-24T01:09:14.201Z,19.97
2019-03-24T01:11:45.809Z,22.43
2019-03-24T01:14:17.427Z,27.80
2019-03-24T01:16:49.009Z,26.30
2019-03-24T01:19:20.679Z,26.80
2019-03-24T01:21:52.280Z,31.53
2019-03-24T01:24:24.146Z,23.70
2019-03-24T01:26:55.723Z,24.60
2019-03-24T01:29:27.377Z,25.70
2019-03-24T01:31:59.096Z,29.57
2019-03-24T01:34:30.779Z,28.80
2019-03-24T01:37:03.697Z,24.13
2019-03-24T01:39:46.837Z,26.43
2019-03-24T01:42:18.463Z,24.33
2019-03-24T01:44:50.078Z,27.50
2019-03-24T01:47:32.963Z,23.87
2019-03-24T01:50:04.790Z,27.67
2019-03-24T01:52:36.509Z,26.67
2019-03-24T01:55:09.577Z,31.97
2019-03-24T01:57:41.754Z,24.67
2019-03-24T02:00:13.745Z,25.60
2019-03-24T02:02:45.349Z,22.27
2019-03-24T02:05:17.041Z,29.60
2019-03-24T02:07:48.705Z,29.03
2019-03-24T02:10:20.577Z,28.20
2019-03-24T02:12:52.151Z,32.33
2019-03-24T02:15:23.805Z,24.43
2019-03-24T02:17:55.387Z,31.03
2019-03-24T02:20:27.376Z,29.73
2019-03-24T02:22:59.007Z,26.53
2019-03-24T02:25:30.831Z,23.37
2019-03-24T02:28:02.460Z,22.10
2019-03-24T02:30:34.116Z,25.07
2019-03-24T02:33:05.775Z,22.43
2019-03-24T02:35:37.388Z,27.97
2019-03-24T02:38:09.001Z,23.30
2019-03-24T02:40:40.664Z,25.43
2019-03-24T02:43:12.295Z,23.97
2019-03-24T02:45:43.855Z,24.53
2019-03-24T02:48:15.487Z,25.30
2019-03-24T02:50:47.153Z,25.93
2019-03-24T02:53:18.913Z,25.57
2019-03-24T02:55:50.524Z,32.07
2019-03-24T02:58:22.351Z,24.80
2019-03-24T03:00:54.103Z,27.50
2019-03-24T03:03:25.881Z,25.30
2019-03-24T03:05:57.547Z,23.00
2019-03-24T03:08:29.403Z,29.77
2019-03-24T03:11:01.997Z,25.37
2019-03-24T03:13:33.660Z,31.70
2019-03-24T03:16:05.298Z,26.53
2019-03-24T03:18:37.988Z,23.17
2019-03-24T03:21:09.647Z,24.33
2019-03-24T03:23:41.230Z,26.63
2019-03-24T03:26:12.946Z,26.23
2019-03-24T03:28:44.686Z,27.00
2019-03-24T03:31:16.324Z,32.43
2019-03-24T03:33:47.957Z,28.30
2019-03-24T03:36:19.584Z,30.97
2019-03-24T03:38:51.230Z,24.60
2019-03-24T03:41:22.876Z,28.20
2019-03-24T03:43:54.479Z,27.50
2019-03-24T03:46:26.202Z,32.83
2019-03-24T03:48:57.808Z,30.03
2019-03-24T03:51:29.552Z,31.80
2019-03-24T03:54:01.258Z,30.57
2019-03-24T03:56:32.914Z,30.03
2019-03-24T03:59:05.078Z,28.80
2019-03-24T04:01:36.681Z,34.63
2019-03-24T04:04:08.328Z,26.77
2019-03-24T04:06:39.997Z,28.80
2019-03-24T04:09:11.839Z,32.87
2019-03-24T04:11:43.594Z,29.17
2019-03-24T04:14:15.250Z,32.30
2019-03-24T04:16:48.038Z,27.97
2019-03-24T04:19:19.626Z,29.40
2019-03-24T04:21:51.349Z,27.27
2019-03-24T04:24:23.044Z,31.13
2019-03-24T04:26:54.717Z,35.67
2019-03-24T04:29:26.375Z,25.77
2019-03-24T04:31:58.017Z,30.07
2019-03-24T04:34:29.654Z,30.60
2019-03-24T04:37:01.303Z,28.90
2019-03-24T04:39:32.885Z,30.10
2019-03-24T04:42:04.582Z,32.13
2019-03-24T04:44:36.253Z,29.23
2019-03-24T04:47:16.304Z,33.17
2019-03-24T04:49:41.297Z,33.23
2019-03-24T04:52:13.117Z,33.30
2019-03-24T04:54:44.740Z,33.43
2019-03-24T04:57:16.445Z,34.57
2019-03-24T04:59:48.323Z,37.50
2019-03-24T05:02:19.933Z,37.60
2019-03-24T05:04:51.530Z,34.93
2019-03-24T05:07:23.203Z,36.50
2019-03-24T05:09:55.180Z,32.53
2019-03-24T05:12:27.101Z,35.80
2019-03-24T05:14:58.693Z,32.90
2019-03-24T05:17:30.380Z,33.77
2019-03-24T05:20:01.995Z,35.23
2019-03-24T05:22:33.607Z,31.60
2019-03-24T05:25:05.665Z,32.77
2019-03-24T05:27:37.661Z,34.83
2019-03-24T05:30:09.651Z,32.80
2019-03-24T05:32:41.323Z,36.70
2019-03-24T05:35:12.957Z,32.40
2019-03-24T05:37:44.603Z,32.57
2019-03-24T05:40:16.277Z,38.20
2019-03-24T05:42:47.883Z,32.53
2019-03-24T05:45:19.535Z,31.50
2019-03-24T05:47:51.242Z,33.00
2019-03-24T05:50:34.216Z,37.40
2019-03-24T05:53:05.937Z,36.80
2019-03-24T05:55:37.804Z,36.77
2019-03-24T05:58:09.531Z,37.00
2019-03-24T06:00:41.294Z,33.20
2019-03-24T06:03:13.245Z,33.70
2019-03-24T06:05:44.892Z,32.80
2019-03-24T06:08:16.661Z,38.30
2019-03-24T06:10:48.265Z,35.30
2019-03-24T06:13:20.016Z,35.40
2019-03-24T06:15:51.723Z,34.80
2019-03-24T06:18:23.391Z,37.20
2019-03-24T06:20:54.973Z,42.10
2019-03-24T06:23:26.605Z,40.10
2019-03-24T06:25:58.211Z,39.60
2019-03-24T06:28:29.939Z,39.30
2019-03-24T06:31:01.812Z,38.43
2019-03-24T06:33:33.687Z,45.60
2019-03-24T06:36:05.335Z,36.63
2019-03-24T06:38:55.866Z,37.43
2019-03-24T06:41:38.891Z,35.97
2019-03-24T06:44:10.685Z,35.50
2019-03-24T06:46:42.465Z,37.60
2019-03-24T06:49:14.465Z,40.70
2019-03-24T06:51:46.154Z,44.87
2019-03-24T06:54:17.881Z,36.60
2019-03-24T06:56:49.529Z,35.27
2019-03-24T06:59:21.397Z,42.13
2019-03-24T07:01:53.313Z,39.73
2019-03-24T07:04:25.109Z,40.03
2019-03-24T07:06:56.773Z,40.80
2019-03-24T07:09:28.563Z,34.07
2019-03-24T07:12:00.741Z,37.77
2019-03-24T07:14:33.299Z,40.87
2019-03-24T07:17:04.955Z,44.17
2019-03-24T07:19:36.583Z,42.37
2019-03-24T07:22:08.367Z,37.33
2019-03-24T07:24:40.073Z,40.10
2019-03-24T07:27:12.031Z,44.60
2019-03-24T07:29:43.856Z,40.47
2019-03-24T07:32:15.509Z,40.03
2019-03-24T07:34:47.147Z,40.97
2019-03-24T07:37:18.765Z,40.00
2019-03-24T07:39:50.365Z,39.23
2019-03-24T07:42:22.070Z,43.27
2019-03-24T07:44:53.863Z,38.57
2019-03-24T07:47:25.545Z,39.30
2019-03-24T07:49:57.294Z,42.77
2019-03-24T07:52:29.181Z,41.63
2019-03-24T07:55:01.478Z,39.67
2019-03-24T07:57:33.437Z,38.37
2019-03-24T08:00:06.251Z,37.83
2019-03-24T08:02:38.218Z,36.60
2019-03-24T08:08:43.985Z,43.17
2019-03-24T08:11:08.953Z,41.70
2019-03-24T08:13:59.426Z,34.70
2019-03-24T08:16:35.089Z,40.83
2019-03-24T08:19:07.327Z,35.03
2019-03-24T08:21:39.181Z,49.60
2019-03-24T08:24:11.333Z,56.13
2019-03-24T08:26:44.979Z,41.07
2019-03-24T08:29:16.935Z,39.17
2019-03-24T08:31:48.809Z,42.97
2019-03-24T08:34:21.679Z,39.10
2019-03-24T08:36:53.556Z,37.47
2019-03-24T08:39:25.244Z,40.00
2019-03-24T08:41:56.845Z,43.23
2019-03-24T08:44:29.039Z,40.37
2019-03-24T08:47:06.805Z,138.53
2019-03-24T08:49:39.987Z,66.20
2019-03-24T08:52:11.989Z,138.63
2019-03-24T08:58:13.577Z,49.43
2019-03-24T09:00:45.727Z,36.10
2019-03-24T09:06:42.066Z,40.47
2019-03-24T09:15:39.537Z,44.40
2019-03-24T09:18:11.848Z,44.40
2019-03-24T09:20:43.711Z,43.63
2019-03-24T09:27:09.378Z,50.07
2019-03-24T09:29:56.090Z,44.67
2019-03-24T09:32:28.510Z,43.27
2019-03-24T09:35:00.525Z,46.50
2019-03-24T09:37:43.882Z,43.90
2019-03-24T09:40:26.701Z,45.63
2019-03-24T09:43:00.465Z,43.20
2019-03-24T09:45:37.631Z,47.67
2019-03-24T09:48:09.471Z,47.63
2019-03-24T09:50:42.157Z,49.40
2019-03-24T09:53:13.868Z,50.90
2019-03-24T09:55:45.701Z,45.77
2019-03-24T09:58:17.613Z,47.00
2019-03-24T10:00:49.539Z,45.27
2019-03-24T10:03:23.363Z,48.73
2019-03-24T10:05:55.851Z,52.23
2019-03-24T10:08:27.977Z,44.50
2019-03-24T10:11:00.161Z,49.83
2019-03-24T10:13:34.395Z,45.17
2019-03-24T10:22:54.189Z,47.93
2019-03-24T10:25:27.085Z,42.63
2019-03-24T10:27:58.867Z,50.20
2019-03-24T10:30:33.131Z,46.33
2019-03-24T10:33:15.971Z,48.93
2019-03-24T10:35:49.033Z,47.70
2019-03-24T10:38:20.701Z,45.63
2019-03-24T10:40:52.421Z,49.47
2019-03-24T10:43:24.198Z,48.20
2019-03-24T10:45:55.881Z,52.13
2019-03-24T10:48:33.647Z,52.90
2019-03-24T10:51:01.311Z,51.87
2019-03-24T10:53:33.097Z,49.57
2019-03-24T10:56:05.807Z,43.73
2019-03-24T10:58:37.457Z,48.83
2019-03-24T11:01:09.407Z,50.17
2019-03-24T11:03:52.007Z,51.03
2019-03-24T11:06:23.805Z,57.73
2019-03-24T11:08:55.875Z,49.03
2019-03-24T11:11:27.636Z,57.20
2019-03-24T11:13:59.425Z,49.97
2019-03-24T11:16:31.399Z,47.23
2019-03-24T11:19:03.294Z,54.33
2019-03-24T11:21:35.273Z,45.13
2019-03-24T11:24:07.045Z,48.83
2019-03-24T11:26:38.721Z,52.13
2019-03-24T11:29:10.375Z,55.07
2019-03-24T11:31:42.272Z,52.40
2019-03-24T11:34:13.919Z,51.63
2019-03-24T11:36:45.650Z,50.40
2019-03-24T11:39:17.465Z,51.43
2019-03-24T11:41:49.207Z,49.40
2019-03-24T11:44:21.347Z,49.20
2019-03-24T11:46:53.327Z,51.77
2019-03-24T11:49:25.235Z,53.20
2019-03-24T11:51:57.117Z,48.80
2019-03-24T11:54:28.611Z,50.03
2019-03-24T11:57:00.302Z,43.43
2019-03-24T11:59:31.911Z,45.50
2019-03-24T12:02:03.723Z,43.77
2019-03-24T12:04:35.555Z,46.70
2019-03-24T12:07:07.237Z,45.53
2019-03-24T12:09:39.123Z,45.20
2019-03-24T12:12:10.848Z,43.30
2019-03-24T12:14:42.842Z,45.40
2019-03-24T12:17:14.905Z,39.23
2019-03-24T12:19:56.462Z,45.43
2019-03-24T12:22:20.103Z,46.07
2019-03-24T12:24:51.751Z,46.13
2019-03-24T12:27:23.409Z,51.73
2019-03-24T12:29:55.503Z,46.30
2019-03-24T12:32:27.365Z,40.80
2019-03-24T12:34:59.370Z,48.07
2019-03-24T12:37:30.973Z,47.10
2019-03-24T12:40:02.660Z,50.30
2019-03-24T12:42:34.306Z,49.47
2019-03-24T12:45:07.695Z,43.10
2019-03-24T12:47:39.633Z,50.70
2019-03-24T12:50:11.879Z,45.07
2019-03-24T12:52:43.709Z,48.43
2019-03-24T12:55:16.051Z,60.53
2019-03-24T12:57:47.827Z,51.37
2019-03-24T13:00:33.495Z,51.63
2019-03-24T13:03:06.007Z,46.87
2019-03-24T13:05:37.866Z,51.23
2019-03-24T13:08:17.205Z,53.40
2019-03-24T13:10:49.777Z,49.00
2019-03-24T13:13:21.569Z,50.20
2019-03-24T13:15:53.203Z,46.00
2019-03-24T13:18:25.125Z,52.83
2019-03-24T13:20:56.908Z,49.87
2019-03-24T13:23:28.526Z,52.80
2019-03-24T13:26:00.503Z,49.30
2019-03-24T13:28:32.104Z,44.50
2019-03-24T13:31:04.041Z,44.40
2019-03-24T13:33:35.657Z,46.60
2019-03-24T13:36:12.868Z,44.80
2019-03-24T13:38:44.541Z,42.27
2019-03-24T13:41:16.231Z,45.60
2019-03-24T13:43:47.931Z,43.97
2019-03-24T13:46:19.581Z,46.80
2019-03-24T13:48:51.226Z,48.27
2019-03-24T13:51:22.901Z,45.40
2019-03-24T13:53:54.758Z,46.73
2019-03-24T13:56:26.415Z,52.70
2019-03-24T13:58:58.033Z,43.17
2019-03-24T14:01:29.685Z,50.23
2019-03-24T14:04:01.601Z,47.50
2019-03-24T14:06:33.973Z,48.50
2019-03-24T14:09:08.314Z,50.47
2019-03-24T14:11:40.097Z,52.07
2019-03-24T14:14:11.969Z,48.60
2019-03-24T14:16:43.599Z,48.43
2019-03-24T14:19:15.207Z,51.37
2019-03-24T14:21:46.938Z,48.50
2019-03-24T14:24:18.800Z,48.20
2019-03-24T14:26:50.533Z,51.13
2019-03-24T14:29:22.167Z,49.90
2019-03-24T14:31:53.781Z,55.83
2019-03-24T14:34:25.716Z,53.87
2019-03-24T14:36:57.404Z,55.57
2019-03-24T14:39:29.061Z,50.90
2019-03-24T14:42:00.634Z,53.17
2019-03-24T14:44:32.291Z,54.20
2019-03-24T14:47:03.924Z,56.63
2019-03-24T14:49:35.505Z,55.60
2019-03-24T14:52:07.161Z,55.77
2019-03-24T14:54:38.754Z,57.13
2019-03-24T14:57:10.367Z,54.60
2019-03-24T14:59:42.211Z,65.57
2019-03-24T15:02:13.886Z,54.27
2019-03-24T15:04:45.496Z,53.03
2019-03-24T15:07:17.147Z,56.43
2019-03-24T15:09:48.775Z,60.37
2019-03-24T15:12:20.776Z,60.57
2019-03-24T15:14:52.444Z,54.37
2019-03-24T15:17:24.345Z,58.77
2019-03-24T15:19:56.132Z,54.23
2019-03-24T15:22:38.673Z,57.23
2019-03-24T15:25:10.299Z,64.83
2019-03-24T15:27:42.657Z,59.77
2019-03-24T15:30:15.403Z,53.10
2019-03-24T15:32:47.201Z,55.80
2019-03-24T15:35:30.446Z,58.90
2019-03-24T15:38:08.377Z,56.17
2019-03-24T15:40:35.839Z,59.70
2019-03-24T15:43:07.608Z,57.67
2019-03-24T15:45:40.477Z,56.60
2019-03-24T15:48:12.147Z,53.93
2019-03-24T15:50:43.827Z,48.27
2019-03-24T15:53:15.621Z,53.33
2019-03-24T15:55:47.451Z,48.50
2019-03-24T15:58:19.489Z,51.10
2019-03-24T16:00:51.153Z,48.63
2019-03-24T16:03:23.197Z,51.30
2019-03-24T16:05:56.458Z,41.10
2019-03-24T16:08:28.487Z,55.57
2019-03-24T16:11:00.299Z,41.70
2019-03-24T16:13:32.179Z,45.00
2019-03-24T16:16:04.467Z,44.97
2019-03-24T16:18:36.195Z,46.57
2019-03-24T16:21:07.787Z,46.97
2019-03-24T16:23:39.559Z,41.70
2019-03-24T16:26:11.547Z,41.13
2019-03-24T16:28:43.213Z,39.67
2019-03-24T16:31:15.220Z,39.83
2019-03-24T16:33:47.193Z,41.07
2019-03-24T16:36:19.179Z,44.87
2019-03-24T16:38:51.005Z,41.57
2019-03-24T16:41:22.911Z,42.40
2019-03-24T16:43:54.663Z,42.10
2019-03-24T16:46:26.635Z,40.57
2019-03-24T16:48:58.289Z,39.00
2019-03-24T16:51:38.177Z,37.37
2019-03-24T16:54:04.067Z,39.13
2019-03-24T16:56:54.630Z,34.57
2019-03-24T16:59:26.447Z,33.07
2019-03-24T17:01:58.126Z,34.00
2019-03-24T17:04:29.798Z,38.83
2019-03-24T17:07:01.612Z,37.30
2019-03-24T17:09:33.541Z,33.37
2019-03-24T17:12:05.443Z,35.43
2019-03-24T17:14:37.567Z,31.83
2019-03-24T17:17:11.457Z,38.33
2019-03-24T17:19:43.345Z,36.70
2019-03-24T17:22:15.162Z,40.07
2019-03-24T17:24:47.156Z,35.40
2019-03-24T17:27:18.841Z,39.10
2019-03-24T17:29:50.559Z,37.97
2019-03-24T17:32:22.239Z,34.47
2019-03-24T17:34:54.801Z,34.67
2019-03-24T17:37:35.001Z,41.80
2019-03-24T17:40:08.660Z,37.23
2019-03-24T17:42:40.327Z,65.73
2019-03-24T17:45:13.363Z,33.03
2019-03-24T17:47:44.989Z,34.87
2019-03-24T17:50:19.831Z,36.63
2019-03-24T17:53:10.314Z,35.50
2019-03-24T17:55:42.274Z,33.43
2019-03-24T17:58:15.682Z,37.63
2019-03-24T18:00:49.684Z,37.13
2019-03-24T18:03:21.375Z,34.40
2019-03-24T18:05:53.112Z,29.37
2019-03-24T18:08:24.903Z,35.33
2019-03-24T18:10:56.545Z,39.83
2019-03-24T18:13:28.183Z,33.40
2019-03-24T18:16:11.313Z,37.40
2019-03-24T18:18:43.017Z,36.63
2019-03-24T18:21:16.597Z,33.43
2019-03-24T18:23:48.607Z,35.00
2019-03-24T18:26:20.635Z,36.77
2019-03-24T18:28:52.269Z,31.70
2019-03-24T18:31:23.969Z,31.63
2019-03-24T18:33:55.717Z,38.53
2019-03-24T18:36:27.411Z,34.77
2019-03-24T18:38:59.111Z,35.77
2019-03-24T18:41:30.913Z,38.70
2019-03-24T18:44:02.626Z,34.10
2019-03-24T18:46:34.393Z,27.90
2019-03-24T18:49:06.065Z,37.00
2019-03-24T18:51:37.915Z,36.73
2019-03-24T18:54:09.670Z,36.00
2019-03-24T18:56:41.685Z,34.90
2019-03-24T18:59:13.387Z,37.57
2019-03-24T19:01:45.079Z,33.03
2019-03-24T19:04:16.945Z,41.13
2019-03-24T19:06:48.571Z,36.20
2019-03-24T19:09:20.244Z,37.53
2019-03-24T19:11:52.044Z,40.03
2019-03-24T19:14:23.701Z,39.30
2019-03-24T19:16:55.553Z,39.87
2019-03-24T19:19:27.273Z,39.53
2019-03-24T19:21:58.905Z,41.20
2019-03-24T19:24:30.517Z,42.43
2019-03-24T19:27:02.385Z,48.73
2019-03-24T19:29:34.131Z,43.27
2019-03-24T19:32:05.934Z,49.90
2019-03-24T19:34:37.773Z,53.03
2019-03-24T19:37:09.618Z,53.40
2019-03-24T19:39:41.403Z,56.47
2019-03-24T19:42:13.236Z,55.53
2019-03-24T19:44:44.977Z,58.50
2019-03-24T19:47:16.772Z,63.20
2019-03-24T19:49:48.503Z,50.77
2019-03-24T19:52:20.309Z,58.97
2019-03-24T19:54:52.062Z,55.90
2019-03-24T19:57:23.993Z,61.90
2019-03-24T19:59:55.763Z,62.13
2019-03-24T20:02:27.815Z,65.67
2019-03-24T20:04:59.713Z,62.20
2019-03-24T20:07:31.535Z,70.57
2019-03-24T20:10:03.407Z,58.07
2019-03-24T20:12:35.574Z,61.00
2019-03-24T20:15:07.728Z,62.43
2019-03-24T20:17:40.141Z,64.20
2019-03-24T20:20:12.016Z,68.00
2019-03-24T20:22:43.845Z,64.47
2019-03-24T20:25:15.829Z,56.70
2019-03-24T20:27:47.481Z,58.33
2019-03-24T20:30:20.252Z,55.27
2019-03-24T20:32:51.941Z,59.37
2019-03-24T20:35:23.622Z,56.73
2019-03-24T20:37:55.365Z,61.57
2019-03-24T20:40:27.159Z,54.93
2019-03-24T20:42:58.930Z,51.80
2019-03-24T20:45:30.869Z,58.90
2019-03-24T20:48:02.643Z,63.97
2019-03-24T20:50:35.957Z,72.10
2019-03-24T20:53:17.557Z,71.60
2019-03-24T20:55:41.071Z,74.23
2019-03-24T20:58:12.851Z,67.40
2019-03-24T21:00:44.493Z,64.53
2019-03-24T21:03:16.269Z,67.00
2019-03-24T21:05:48.287Z,64.13
2019-03-24T21:08:20.021Z,64.47
2019-03-24T21:10:51.721Z,62.57
2019-03-24T21:13:23.463Z,66.13
2019-03-24T21:15:55.219Z,64.00
2019-03-24T21:18:27.021Z,63.97
2019-03-24T21:20:58.687Z,65.40
2019-03-24T21:23:30.527Z,62.53
2019-03-24T21:26:03.789Z,59.63
2019-03-24T21:28:35.539Z,68.23
2019-03-24T21:31:07.274Z,65.50
2019-03-24T21:33:38.995Z,66.67
2019-03-24T21:36:10.799Z,71.13
2019-03-24T21:38:42.471Z,64.60
2019-03-24T21:41:14.179Z,63.50
2019-03-24T21:43:45.928Z,66.37
2019-03-24T21:46:17.575Z,66.13
2019-03-24T21:48:49.219Z,80.33
2019-03-24T21:51:21.015Z,74.47
2019-03-24T21:53:52.643Z,70.17
2019-03-24T21:56:24.341Z,67.73
2019-03-24T21:58:56.004Z,66.37
2019-03-24T22:01:27.736Z,67.80
2019-03-24T22:03:59.515Z,69.93
2019-03-24T22:06:31.131Z,67.03
2019-03-24T22:09:02.843Z,68.97
2019-03-24T22:11:35.977Z,66.33
2019-03-24T22:14:07.713Z,64.30
2019-03-24T22:16:39.661Z,62.80
2019-03-24T22:19:11.379Z,66.13
2019-03-24T22:21:43.155Z,63.30
2019-03-24T22:24:14.977Z,70.03
2019-03-24T22:26:46.719Z,70.60
2019-03-24T22:29:18.499Z,71.33
2019-03-24T22:31:50.184Z,67.43
2019-03-24T22:34:21.890Z,64.30
2019-03-24T22:36:53.683Z,64.63
2019-03-24T22:39:25.349Z,72.00
2019-03-24T22:41:57.070Z,64.60
2019-03-24T22:44:28.759Z,70.33
2019-03-24T22:47:00.424Z,70.63
2019-03-24T22:49:32.098Z,71.03
2019-03-24T22:52:07.517Z,70.70
2019-03-24T22:54:37.459Z,72.70
2019-03-24T22:57:09.175Z,66.47
2019-03-24T22:59:40.878Z,68.97
2019-03-24T23:02:12.561Z,67.17
2019-03-24T23:04:44.247Z,68.13
2019-03-24T23:07:16.001Z,65.57
2019-03-24T23:09:51.010Z,67.53
2019-03-24T23:12:22.607Z,67.60
2019-03-24T23:14:54.569Z,70.17
2019-03-24T23:17:26.176Z,62.80
2019-03-24T23:19:57.822Z,67.47
2019-03-24T23:22:29.611Z,63.17
2019-03-24T23:25:01.334Z,70.97
2019-03-24T23:27:33.039Z,70.83
2019-03-24T23:30:05.498Z,68.03
2019-03-24T23:32:37.137Z,72.27
2019-03-24T23:35:10.362Z,73.93
2019-03-24T23:37:42.039Z,62.00
2019-03-24T23:40:13.857Z,66.47
2019-03-24T23:42:45.579Z,68.33
2019-03-24T23:45:17.319Z,64.43
2019-03-24T23:47:49.068Z,63.80
2019-03-24T23:50:21.093Z,73.17
2019-03-24T23:52:53.136Z,61.00
2019-03-24T23:55:25.239Z,68.30
2019-03-24T23:57:56.957Z,65.60
